Strona główna
METAR-TAF:

METAR-TAF

Lotnisko :

Port lotniczy Ambon

Ambon, Indonezja

Szerokość geograficzna: 03-42S, Długość geograficzna: 128-05E, wysokość: 12 m

Aktualna obserwacja pogody

Raport powstał 15 godziny i 29 minut temu, godzina 10:00 UTC
Wiatr 6 kt od północno-północny zachód
Temperatura 27°C
Wilgotność 89%
Ciśnienie 1009 hPa
Widzialność 10 km lub więcej
Mało chmury na wysokości 1800 ft

METAR: WAPP 121000Z 33006KT 9999 FEW018 27/25 Q1009 NOSIG

czas: 10:29 (01:29 UTC)

Prognoza

Raport powstał 2 godziny i 29 minut temu, godzina 23:00 UTC
Prognoza ważna od 13 godzina 00 UTC do 13 godzina 24 UTC
Wiatr 8 kt od południowo-południowy zachód
Widzialność 10 km lub więcej
Rozproszone chmury na wysokości 1800 ft
Przejściowo
od 13 godzina 02 UTC do 13 godzina 05 UTC
Widzialność: 5000 m
deszcz
Stopniowe zmiany
od 13 godzina 08 UTC do 13 godzina 10 UTC
Wiatr 7 kt od północno-północny zachód

TAF: WAPP 122300Z 1300/1324 21008KT 9999 SCT018 TEMPO 1302/1305 5000 RA BECMG 1308/1310 34007KT

Obserwacja i prognoza pogody dla ponad 4000 lotnisk (raport METAR i TAF).

Dostępne stacje oznaczono żółtymi i czerwonymi punktami na mapie.

Najedź kursorem aby zobaczyć nazwę stacji.

Kliknij aby zobaczyć obserwacje i prognozy pogody.

Aby zmienić mapę: kliknij na zielony przycisk z czarnym krzyżykiem, aby powiększyć; na zielony przycisk z myślnikiem, aby pomniejszyć; na zielone strzałki, aby przejść do map sąsiednich.


METAR-TAF: